Time,TemperatureF,DewpointF,PressureIn,WindDirection,WindDirectionDegrees,WindSpeedMPH,WindSpeedGustMPH,Humidity,HourlyPrecipIn,Conditions,Clouds,dailyrainin,SoftwareType,DateUTC
2013-08-03 00:00:00,75.2,70.0,29.85,North,-999,-999.0,0.0,84,0.00,,---,0.00,VWS V14.01,2013-08-03 04:00:00,
2013-08-03 00:02:00,75.2,70.4,29.85,North,-999,-999.0,0.0,85,0.00,,---,0.00,VWS V14.01,2013-08-03 04:02:00,
2013-08-03 00:04:00,75.1,70.3,29.85,North,-999,-999.0,0.0,85,0.00,,---,0.00,VWS V14.01,2013-08-03 04:04:00,
2013-08-03 00:08:00,75.1,70.3,29.85,North,-999,-999.0,0.0,85,0.00,,---,0.00,VWS V14.01,2013-08-03 04:08:00,
2013-08-03 00:13:00,75.1,70.3,29.85,North,-999,-999.0,0.0,85,0.00,,---,0.00,VWS V14.01,2013-08-03 04:13:00,
2013-08-03 00:15:00,75.1,70.3,29.84,North,-999,-999.0,0.0,85,0.00,,---,0.00,VWS V14.01,2013-08-03 04:15:00,
2013-08-03 00:21:00,74.9,70.1,29.85,North,-999,-999.0,0.0,85,0.00,,---,0.00,VWS V14.01,2013-08-03 04:21:00,
2013-08-03 00:27:00,74.9,70.1,29.85,North,-999,-999.0,0.0,85,0.00,,---,0.00,VWS V14.01,2013-08-03 04:27:00,
2013-08-03 00:33:00,74.9,70.1,29.85,North,-999,-999.0,0.0,85,0.00,,---,0.00,VWS V14.01,2013-08-03 04:33:00,
2013-08-03 00:38:00,74.9,70.1,29.84,North,-999,-999.0,0.0,85,0.00,,---,0.00,VWS V14.01,2013-08-03 04:38:00,
2013-08-03 00:43:00,74.7,69.9,29.85,North,-999,-999.0,0.0,85,0.00,,---,0.00,VWS V14.01,2013-08-03 04:43:00,
2013-08-03 00:48:00,74.7,69.9,29.85,North,-999,-999.0,0.0,85,0.00,,---,0.00,VWS V14.01,2013-08-03 04:48:00,
2013-08-03 00:54:00,74.5,69.7,29.85,North,-999,-999.0,0.0,85,0.00,,---,0.00,VWS V14.01,2013-08-03 04:54:00,
2013-08-03 00:58:00,74.5,69.7,29.85,North,-999,-999.0,0.0,85,0.00,,---,0.00,VWS V14.01,2013-08-03 04:58:00,
2013-08-03 01:04:00,74.2,69.4,29.85,North,-999,-999.0,0.0,85,0.00,,---,0.00,VWS V14.01,2013-08-03 05:04:00,
2013-08-03 01:10:00,74.2,69.4,29.85,North,-999,-999.0,0.0,85,0.00,,---,0.00,VWS V14.01,2013-08-03 05:10:00,
2013-08-03 01:15:00,74.2,69.8,29.85,North,-999,-999.0,0.0,86,0.00,,---,0.00,VWS V14.01,2013-08-03 05:15:00,
2013-08-03 01:20:00,73.8,69.3,29.84,North,-999,-999.0,0.0,86,0.00,,---,0.00,VWS V14.01,2013-08-03 05:20:00,
2013-08-03 01:26:00,73.8,69.3,29.84,North,-999,-999.0,0.0,86,0.00,,---,0.00,VWS V14.01,2013-08-03 05:26:00,
2013-08-03 01:31:00,73.6,69.2,29.84,North,-999,-999.0,0.0,86,0.00,,---,0.00,VWS V14.01,2013-08-03 05:31:00,
2013-08-03 01:37:00,73.4,69.0,29.85,North,-999,-999.0,0.0,86,0.00,,---,0.00,VWS V14.01,2013-08-03 05:37:00,
2013-08-03 01:42:00,73.4,69.0,29.84,North,-999,-999.0,0.0,86,0.00,,---,0.00,VWS V14.01,2013-08-03 05:42:00,
2013-08-03 01:47:00,73.3,69.2,29.84,North,-999,-999.0,0.0,87,0.00,,---,0.00,VWS V14.01,2013-08-03 05:47:00,
2013-08-03 01:52:00,73.1,69.0,29.84,North,-999,-999.0,0.0,87,0.00,,---,0.00,VWS V14.01,2013-08-03 05:52:00,
2013-08-03 01:57:00,73.1,69.0,29.84,North,-999,-999.0,0.0,87,0.00,,---,0.00,VWS V14.01,2013-08-03 05:57:00,
2013-08-03 02:03:00,72.9,68.5,29.84,North,-999,-999.0,0.0,86,0.00,,---,0.00,VWS V14.01,2013-08-03 06:03:00,
2013-08-03 02:08:00,72.9,68.5,29.84,North,-999,-999.0,0.0,86,0.00,,---,0.00,VWS V14.01,2013-08-03 06:08:00,
2013-08-03 02:13:00,72.7,68.3,29.84,North,-999,-999.0,0.0,86,0.00,,---,0.00,VWS V14.01,2013-08-03 06:13:00,
2013-08-03 02:18:00,72.7,68.3,29.84,North,-999,-999.0,0.0,86,0.00,,---,0.00,VWS V14.01,2013-08-03 06:18:00,
2013-08-03 02:24:00,72.7,68.3,29.84,North,-999,-999.0,0.0,86,0.00,,---,0.00,VWS V14.01,2013-08-03 06:24:00,
2013-08-03 02:29:00,72.7,68.3,29.83,North,-999,-999.0,0.0,86,0.00,,---,0.00,VWS V14.01,2013-08-03 06:29:00,
2013-08-03 02:34:00,72.7,68.3,29.83,North,-999,-999.0,0.0,86,0.00,,---,0.00,VWS V14.01,2013-08-03 06:34:00,
2013-08-03 02:39:00,72.5,68.1,29.83,North,-999,-999.0,0.0,86,0.00,,---,0.00,VWS V14.01,2013-08-03 06:39:00,
2013-08-03 02:44:00,72.5,68.1,29.83,North,-999,-999.0,0.0,86,0.00,,---,0.00,VWS V14.01,2013-08-03 06:44:00,
2013-08-03 02:50:00,72.4,68.0,29.83,North,-999,-999.0,0.0,86,0.00,,---,0.00,VWS V14.01,2013-08-03 06:50:00,
2013-08-03 02:55:00,72.4,68.3,29.83,North,-999,-999.0,0.0,87,0.00,,---,0.00,VWS V14.01,2013-08-03 06:55:00,
2013-08-03 03:00:00,72.4,68.3,29.82,North,-999,-999.0,0.0,87,0.00,,---,0.00,VWS V14.01,2013-08-03 07:00:00,
2013-08-03 03:05:00,72.4,68.3,29.83,North,-999,-999.0,0.0,87,0.00,,---,0.00,VWS V14.01,2013-08-03 07:05:00,
2013-08-03 03:10:00,72.4,68.3,29.83,North,-999,-999.0,0.0,87,0.00,,---,0.00,VWS V14.01,2013-08-03 07:10:00,
2013-08-03 03:16:00,72.5,68.4,29.83,North,-999,-999.0,0.0,87,0.00,,---,0.00,VWS V14.01,2013-08-03 07:16:00,
2013-08-03 03:21:00,72.5,68.4,29.83,North,-999,-999.0,0.0,87,0.00,,---,0.00,VWS V14.01,2013-08-03 07:21:00,
2013-08-03 03:26:00,72.7,68.6,29.83,North,-999,-999.0,0.0,87,0.00,,---,0.00,VWS V14.01,2013-08-03 07:26:00,
2013-08-03 03:31:00,72.7,68.9,29.83,North,-999,-999.0,0.0,88,0.00,,---,0.00,VWS V14.01,2013-08-03 07:31:00,
2013-08-03 03:36:00,73.1,69.7,29.83,North,-999,-999.0,0.0,89,0.00,,---,0.00,VWS V14.01,2013-08-03 07:36:00,
2013-08-03 03:41:00,73.1,69.7,29.83,North,-999,-999.0,0.0,89,0.00,,---,0.00,VWS V14.01,2013-08-03 07:41:00,
2013-08-03 03:48:00,73.1,69.0,29.83,North,-999,-999.0,0.0,87,0.00,,---,0.00,VWS V14.01,2013-08-03 07:48:00,
2013-08-03 03:53:00,73.1,69.0,29.82,North,-999,-999.0,0.0,87,0.00,,---,0.00,VWS V14.01,2013-08-03 07:53:00,
2013-08-03 03:58:00,72.9,68.8,29.82,North,-999,-999.0,0.0,87,0.00,,---,0.00,VWS V14.01,2013-08-03 07:58:00,
2013-08-03 04:03:00,72.7,68.6,29.82,North,-999,-999.0,0.0,87,0.00,,---,0.00,VWS V14.01,2013-08-03 08:03:00,
2013-08-03 04:09:00,72.5,68.4,29.82,North,-999,-999.0,0.0,87,0.00,,---,0.00,VWS V14.01,2013-08-03 08:09:00,
2013-08-03 04:13:00,72.5,68.4,29.82,North,-999,-999.0,0.0,87,0.00,,---,0.00,VWS V14.01,2013-08-03 08:13:00,
2013-08-03 04:19:00,72.4,68.7,29.82,North,-999,-999.0,0.0,88,0.00,,---,0.00,VWS V14.01,2013-08-03 08:19:00,
2013-08-03 04:25:00,72.4,68.7,29.82,North,-999,-999.0,0.0,88,0.00,,---,0.00,VWS V14.01,2013-08-03 08:25:00,
2013-08-03 04:30:00,72.2,68.4,29.82,North,-999,-999.0,0.0,88,0.00,,---,0.00,VWS V14.01,2013-08-03 08:30:00,
2013-08-03 04:35:00,72.2,68.4,29.82,North,-999,-999.0,0.0,88,0.00,,---,0.00,VWS V14.01,2013-08-03 08:35:00,
2013-08-03 04:40:00,72.2,68.4,29.82,North,-999,-999.0,0.0,88,0.00,,---,0.00,VWS V14.01,2013-08-03 08:40:00,
2013-08-03 04:46:00,72.4,68.7,29.82,North,-999,-999.0,0.0,88,0.00,,---,0.00,VWS V14.01,2013-08-03 08:46:00,
2013-08-03 04:51:00,72.4,68.7,29.82,North,-999,-999.0,0.0,88,0.00,,---,0.00,VWS V14.01,2013-08-03 08:51:00,
2013-08-03 04:56:00,72.4,68.7,29.82,North,-999,-999.0,0.0,88,0.00,,---,0.00,VWS V14.01,2013-08-03 08:56:00,
2013-08-03 05:01:00,72.4,68.7,29.81,North,-999,-999.0,0.0,88,0.00,,---,0.00,VWS V14.01,2013-08-03 09:01:00,
2013-08-03 05:06:00,72.5,68.8,29.82,North,-999,-999.0,0.0,88,0.00,,---,0.00,VWS V14.01,2013-08-03 09:06:00,
2013-08-03 05:12:00,72.5,68.8,29.82,North,-999,-999.0,0.0,88,0.00,,---,0.00,VWS V14.01,2013-08-03 09:12:00,
2013-08-03 05:17:00,72.7,69.3,29.82,North,-999,-999.0,0.0,89,0.00,,---,0.00,VWS V14.01,2013-08-03 09:17:00,
2013-08-03 05:22:00,72.5,69.1,29.82,North,-999,-999.0,0.0,89,0.00,,---,0.00,VWS V14.01,2013-08-03 09:22:00,
2013-08-03 05:27:00,72.5,69.1,29.82,North,-999,-999.0,0.0,89,0.00,,---,0.00,VWS V14.01,2013-08-03 09:27:00,
2013-08-03 05:33:00,72.4,69.0,29.82,North,-999,-999.0,0.0,89,0.00,,---,0.00,VWS V14.01,2013-08-03 09:33:00,
2013-08-03 05:38:00,72.5,69.1,29.82,North,-999,-999.0,0.0,89,0.00,,---,0.00,VWS V14.01,2013-08-03 09:38:00,
2013-08-03 05:43:00,72.5,69.1,29.82,North,-999,-999.0,0.0,89,0.00,,---,0.00,VWS V14.01,2013-08-03 09:43:00,
2013-08-03 05:48:00,72.7,69.3,29.82,North,-999,-999.0,0.0,89,0.00,,---,0.00,VWS V14.01,2013-08-03 09:48:00,
2013-08-03 05:53:00,72.7,69.3,29.82,North,-999,-999.0,0.0,89,0.00,,---,0.00,VWS V14.01,2013-08-03 09:53:00,
2013-08-03 05:59:00,72.7,69.3,29.82,North,-999,-999.0,0.0,89,0.00,,---,0.00,VWS V14.01,2013-08-03 09:59:00,
2013-08-03 06:05:00,72.7,69.3,29.82,North,-999,-999.0,0.0,89,0.00,,---,0.00,VWS V14.01,2013-08-03 10:05:00,
2013-08-03 06:10:00,72.7,69.3,29.82,North,-999,-999.0,0.0,89,0.00,,---,0.00,VWS V14.01,2013-08-03 10:10:00,
2013-08-03 06:15:00,72.7,69.3,29.82,North,-999,-999.0,0.0,89,0.00,,---,0.00,VWS V14.01,2013-08-03 10:15:00,
2013-08-03 06:20:00,72.7,69.3,29.82,North,-999,-999.0,0.0,89,0.00,,---,0.00,VWS V14.01,2013-08-03 10:20:00,
2013-08-03 06:25:00,72.7,69.3,29.82,North,-999,-999.0,0.0,89,0.00,,---,0.00,VWS V14.01,2013-08-03 10:25:00,
2013-08-03 06:31:00,72.7,69.3,29.82,North,-999,-999.0,0.0,89,0.00,,---,0.00,VWS V14.01,2013-08-03 10:31:00,
2013-08-03 06:36:00,72.5,69.1,29.82,North,-999,-999.0,0.0,89,0.00,,---,0.00,VWS V14.01,2013-08-03 10:36:00,
2013-08-03 06:42:00,72.5,69.1,29.82,North,-999,-999.0,0.0,89,0.00,,---,0.00,VWS V14.01,2013-08-03 10:42:00,
2013-08-03 06:47:00,72.4,69.0,29.82,North,-999,-999.0,0.0,89,0.00,,---,0.00,VWS V14.01,2013-08-03 10:47:00,
2013-08-03 06:52:00,72.5,69.1,29.82,North,-999,-999.0,0.0,89,0.00,,---,0.00,VWS V14.01,2013-08-03 10:52:00,
2013-08-03 06:57:00,72.5,69.1,29.82,North,-999,-999.0,0.0,89,0.00,,---,0.00,VWS V14.01,2013-08-03 10:57:00,
2013-08-03 07:03:00,72.5,69.1,29.82,North,-999,-999.0,0.0,89,0.00,,---,0.00,VWS V14.01,2013-08-03 11:03:00,
2013-08-03 07:08:00,72.5,69.1,29.82,North,-999,-999.0,0.0,89,0.00,,---,0.00,VWS V14.01,2013-08-03 11:08:00,
2013-08-03 07:13:00,72.7,69.3,29.82,North,-999,-999.0,0.0,89,0.00,,---,0.00,VWS V14.01,2013-08-03 11:13:00,
2013-08-03 07:18:00,72.7,69.3,29.83,North,-999,-999.0,0.0,89,0.00,,---,0.00,VWS V14.01,2013-08-03 11:18:00,
2013-08-03 07:24:00,72.7,69.6,29.83,North,-999,-999.0,0.0,90,0.00,,---,0.00,VWS V14.01,2013-08-03 11:24:00,
2013-08-03 07:29:00,73.1,69.7,29.83,North,-999,-999.0,0.0,89,0.00,,---,0.00,VWS V14.01,2013-08-03 11:29:00,
2013-08-03 07:34:00,73.1,69.7,29.83,North,-999,-999.0,0.0,89,0.00,,---,0.00,VWS V14.01,2013-08-03 11:34:00,
2013-08-03 07:39:00,73.3,70.2,29.83,North,-999,-999.0,0.0,90,0.00,,---,0.00,VWS V14.01,2013-08-03 11:39:00,
2013-08-03 07:45:00,73.6,70.5,29.83,North,-999,-999.0,0.0,90,0.00,,---,0.00,VWS V14.01,2013-08-03 11:45:00,
2013-08-03 07:50:00,73.8,70.7,29.83,North,-999,-999.0,0.0,90,0.00,,---,0.00,VWS V14.01,2013-08-03 11:50:00,
2013-08-03 07:54:00,74.2,71.1,29.83,North,-999,-999.0,0.0,90,0.00,,---,0.00,VWS V14.01,2013-08-03 11:54:00,
2013-08-03 08:00:00,74.3,71.2,29.83,North,-999,-999.0,0.0,90,0.00,,---,0.00,VWS V14.01,2013-08-03 12:00:00,
2013-08-03 08:05:00,74.7,71.6,29.84,North,-999,-999.0,0.0,90,0.00,,---,0.00,VWS V14.01,2013-08-03 12:05:00,
2013-08-03 08:11:00,75.1,72.0,29.84,North,-999,-999.0,0.0,90,0.00,,---,0.00,VWS V14.01,2013-08-03 12:11:00,
2013-08-03 08:16:00,75.2,71.7,29.84,North,-999,-999.0,0.0,89,0.00,,---,0.00,VWS V14.01,2013-08-03 12:16:00,
2013-08-03 08:21:00,75.6,72.1,29.84,North,-999,-999.0,0.0,89,0.00,,---,0.00,VWS V14.01,2013-08-03 12:21:00,
2013-08-03 08:26:00,75.8,72.3,29.84,North,-999,-999.0,0.0,89,0.00,,---,0.00,VWS V14.01,2013-08-03 12:26:00,
2013-08-03 08:31:00,76.0,72.5,29.84,North,-999,-999.0,0.0,89,0.00,,---,0.00,VWS V14.01,2013-08-03 12:31:00,
2013-08-03 08:37:00,76.3,72.8,29.84,North,-999,-999.0,0.0,89,0.00,,---,0.00,VWS V14.01,2013-08-03 12:37:00,
2013-08-03 08:43:00,76.7,72.9,29.83,North,-999,-999.0,0.0,88,0.00,,---,0.00,VWS V14.01,2013-08-03 12:43:00,
2013-08-03 08:48:00,77.2,73.0,29.84,North,-999,-999.0,0.0,87,0.00,,---,0.00,VWS V14.01,2013-08-03 12:48:00,
2013-08-03 08:53:00,77.4,73.2,29.83,North,-999,-999.0,0.0,87,0.00,,---,0.00,VWS V14.01,2013-08-03 12:53:00,
2013-08-03 08:58:00,77.8,73.6,29.84,North,-999,-999.0,0.0,87,0.00,,---,0.00,VWS V14.01,2013-08-03 12:58:00,
2013-08-03 09:03:00,77.8,72.9,29.84,North,-999,-999.0,0.0,85,0.00,,---,0.00,VWS V14.01,2013-08-03 13:03:00,
2013-08-03 09:09:00,78.1,73.2,29.84,North,-999,-999.0,0.0,85,0.00,,---,0.00,VWS V14.01,2013-08-03 13:09:00,
2013-08-03 09:14:00,78.3,73.4,29.84,North,-999,-999.0,0.0,85,0.00,,---,0.00,VWS V14.01,2013-08-03 13:14:00,
2013-08-03 09:19:00,78.8,73.6,29.84,North,-999,-999.0,0.0,84,0.00,,---,0.00,VWS V14.01,2013-08-03 13:19:00,
2013-08-03 09:25:00,79.2,73.6,29.84,North,-999,-999.0,0.0,83,0.00,,---,0.00,VWS V14.01,2013-08-03 13:25:00,
2013-08-03 09:32:00,79.0,73.0,29.84,North,-999,-999.0,0.0,82,0.00,,---,0.00,VWS V14.01,2013-08-03 13:32:00,
2013-08-03 09:37:00,79.2,73.2,29.83,North,-999,-999.0,0.0,82,0.00,,---,0.00,VWS V14.01,2013-08-03 13:37:00,
2013-08-03 09:42:00,79.2,72.9,29.83,North,-999,-999.0,0.0,81,0.00,,---,0.00,VWS V14.01,2013-08-03 13:42:00,
2013-08-03 09:48:00,79.6,73.3,29.84,North,-999,-999.0,0.0,81,0.00,,---,0.00,VWS V14.01,2013-08-03 13:48:00,
2013-08-03 09:53:00,79.7,73.0,29.84,North,-999,-999.0,0.0,80,0.00,,---,0.00,VWS V14.01,2013-08-03 13:53:00,
2013-08-03 09:58:00,79.9,72.8,29.84,North,-999,-999.0,0.0,79,0.00,,---,0.00,VWS V14.01,2013-08-03 13:58:00,
2013-08-03 10:03:00,80.1,72.6,29.84,North,-999,-999.0,0.0,78,0.00,,---,0.00,VWS V14.01,2013-08-03 14:03:00,
2013-08-03 10:08:00,80.3,72.1,29.84,North,-999,-999.0,0.0,76,0.00,,---,0.00,VWS V14.01,2013-08-03 14:08:00,
2013-08-03 10:14:00,80.6,71.9,29.84,North,-999,-999.0,0.0,75,0.00,,---,0.00,VWS V14.01,2013-08-03 14:14:00,
2013-08-03 10:19:00,81.2,71.7,29.84,North,-999,-999.0,0.0,73,0.00,,---,0.00,VWS V14.01,2013-08-03 14:19:00,
2013-08-03 10:25:00,81.5,71.6,29.84,North,-999,-999.0,0.0,72,0.00,,---,0.00,VWS V14.01,2013-08-03 14:25:00,
2013-08-03 10:30:00,82.1,72.6,29.85,North,-999,-999.0,0.0,73,0.00,,---,0.00,VWS V14.01,2013-08-03 14:30:00,
2013-08-03 10:35:00,82.4,70.8,29.85,North,-999,-999.0,0.0,68,0.00,,---,0.00,VWS V14.01,2013-08-03 14:35:00,
2013-08-03 10:40:00,82.8,71.6,29.85,North,-999,-999.0,0.0,69,0.00,,---,0.00,VWS V14.01,2013-08-03 14:40:00,
2013-08-03 10:45:00,83.3,72.1,29.85,North,-999,-999.0,0.0,69,0.00,,---,0.00,VWS V14.01,2013-08-03 14:45:00,
2013-08-03 10:50:00,83.9,71.8,29.84,North,-999,-999.0,0.0,67,0.00,,---,0.00,VWS V14.01,2013-08-03 14:50:00,
2013-08-03 10:55:00,84.2,71.6,29.84,North,-999,-999.0,0.0,66,0.00,,---,0.00,VWS V14.01,2013-08-03 14:55:00,
2013-08-03 11:00:00,84.8,71.7,29.83,North,-999,-999.0,0.0,65,0.00,,---,0.00,VWS V14.01,2013-08-03 15:00:00,
2013-08-03 11:05:00,85.0,71.5,29.83,North,-999,-999.0,0.0,64,0.00,,---,0.00,VWS V14.01,2013-08-03 15:05:00,
2013-08-03 11:10:00,85.1,71.1,29.83,North,-999,-999.0,0.0,63,0.00,,---,0.00,VWS V14.01,2013-08-03 15:10:00,
2013-08-03 11:15:00,85.7,71.7,29.84,North,-999,-999.0,0.0,63,0.00,,---,0.00,VWS V14.01,2013-08-03 15:15:00,
2013-08-03 11:20:00,87.5,72.4,29.83,North,-999,-999.0,0.0,61,0.00,,---,0.00,VWS V14.01,2013-08-03 15:20:00,
2013-08-03 11:25:00,89.3,71.0,29.84,North,-999,-999.0,0.0,55,0.00,,---,0.00,VWS V14.01,2013-08-03 15:25:00,
2013-08-03 11:31:00,89.6,71.3,29.84,North,-999,-999.0,0.0,55,0.00,,---,0.00,VWS V14.01,2013-08-03 15:31:00,
2013-08-03 11:36:00,90.4,71.5,29.84,North,-999,-999.0,0.0,54,0.00,,---,0.00,VWS V14.01,2013-08-03 15:36:00,
2013-08-03 11:41:00,91.1,71.0,29.84,North,-999,-999.0,0.0,52,0.00,,---,0.00,VWS V14.01,2013-08-03 15:41:00,
2013-08-03 11:46:00,91.4,71.9,29.84,North,-999,-999.0,0.0,53,0.00,,---,0.00,VWS V14.01,2013-08-03 15:46:00,
2013-08-03 11:52:00,91.3,70.7,29.84,North,-999,-999.0,0.0,51,0.00,,---,0.00,VWS V14.01,2013-08-03 15:52:00,
2013-08-03 11:57:00,90.2,70.2,29.84,North,-999,-999.0,0.0,52,0.00,,---,0.00,VWS V14.01,2013-08-03 15:57:00,
2013-08-03 12:02:00,90.4,70.4,29.84,North,-999,-999.0,0.0,52,0.00,,---,0.00,VWS V14.01,2013-08-03 16:02:00,
2013-08-03 12:07:00,90.5,69.9,29.84,North,-999,-999.0,0.0,51,0.00,,---,0.00,VWS V14.01,2013-08-03 16:07:00,
2013-08-03 12:12:00,91.4,70.2,29.84,North,-999,-999.0,0.0,50,0.00,,---,0.00,VWS V14.01,2013-08-03 16:12:00,
2013-08-03 12:18:00,91.8,70.5,29.83,North,-999,-999.0,0.0,50,0.00,,---,0.00,VWS V14.01,2013-08-03 16:18:00,
2013-08-03 12:23:00,91.8,69.9,29.83,North,-999,-999.0,0.0,49,0.00,,---,0.00,VWS V14.01,2013-08-03 16:23:00,
2013-08-03 12:28:00,91.3,68.9,29.83,North,-999,-999.0,0.0,48,0.00,,---,0.00,VWS V14.01,2013-08-03 16:28:00,
2013-08-03 12:33:00,92.3,71.0,29.83,North,-999,-999.0,0.0,50,0.00,,---,0.00,VWS V14.01,2013-08-03 16:33:00,
2013-08-03 12:38:00,92.3,69.8,29.84,North,-999,-999.0,0.0,48,0.00,,---,0.00,VWS V14.01,2013-08-03 16:38:00,
2013-08-03 12:44:00,91.8,69.3,29.83,North,-999,-999.0,0.0,48,0.00,,---,0.00,VWS V14.01,2013-08-03 16:44:00,
2013-08-03 12:49:00,91.1,68.7,29.84,North,-999,-999.0,0.0,48,0.00,,---,0.00,VWS V14.01,2013-08-03 16:49:00,
2013-08-03 12:53:00,91.1,69.9,29.83,North,-999,-999.0,0.0,50,0.00,,---,0.00,VWS V14.01,2013-08-03 16:53:00,
2013-08-03 12:59:00,92.3,70.4,29.83,North,-999,-999.0,0.0,49,0.00,,---,0.00,VWS V14.01,2013-08-03 16:59:00,
2013-08-03 13:04:00,92.9,69.1,29.83,North,-999,-999.0,0.0,46,0.00,,---,0.00,VWS V14.01,2013-08-03 17:04:00,
2013-08-03 13:10:00,92.7,70.2,29.83,North,-999,-999.0,0.0,48,0.00,,---,0.00,VWS V14.01,2013-08-03 17:10:00,
2013-08-03 13:14:00,92.5,70.6,29.83,North,-999,-999.0,0.0,49,0.00,,---,0.00,VWS V14.01,2013-08-03 17:14:00,
2013-08-03 13:19:00,94.0,71.3,29.83,North,-999,-999.0,0.0,48,0.00,,---,0.00,VWS V14.01,2013-08-03 17:19:00,
2013-08-03 13:25:00,92.7,68.9,29.83,North,-999,-999.0,0.0,46,0.00,,---,0.00,VWS V14.01,2013-08-03 17:25:00,
2013-08-03 13:30:00,92.5,69.3,29.83,North,-999,-999.0,0.0,47,0.00,,---,0.00,VWS V14.01,2013-08-03 17:30:00,
2013-08-03 13:35:00,92.0,68.9,29.82,North,-999,-999.0,0.0,47,0.00,,---,0.00,VWS V14.01,2013-08-03 17:35:00,
2013-08-03 13:40:00,92.2,69.7,29.83,North,-999,-999.0,0.0,48,0.00,,---,0.00,VWS V14.01,2013-08-03 17:40:00,
2013-08-03 13:45:00,92.7,68.9,29.82,North,-999,-999.0,0.0,46,0.00,,---,0.00,VWS V14.01,2013-08-03 17:45:00,
2013-08-03 13:51:00,94.1,71.4,29.83,North,-999,-999.0,0.0,48,0.00,,---,0.00,VWS V14.01,2013-08-03 17:51:00,
2013-08-03 13:57:00,95.9,71.2,29.83,North,-999,-999.0,0.0,45,0.00,,---,0.00,VWS V14.01,2013-08-03 17:57:00,
2013-08-03 14:02:00,95.8,69.0,29.82,North,-999,-999.0,0.0,42,0.00,,---,0.00,VWS V14.01,2013-08-03 18:02:00,
2013-08-03 14:08:00,95.9,69.8,29.82,North,-999,-999.0,0.0,43,0.00,,---,0.00,VWS V14.01,2013-08-03 18:08:00,
2013-08-03 14:13:00,95.2,69.9,29.82,North,-999,-999.0,0.0,44,0.00,,---,0.00,VWS V14.01,2013-08-03 18:13:00,
2013-08-03 14:18:00,94.5,67.9,29.82,North,-999,-999.0,0.0,42,0.00,,---,0.00,VWS V14.01,2013-08-03 18:18:00,
2013-08-03 14:23:00,93.1,68.6,29.82,North,-999,-999.0,0.0,45,0.00,,---,0.00,VWS V14.01,2013-08-03 18:23:00,
2013-08-03 14:28:00,94.0,69.4,29.82,North,-999,-999.0,0.0,45,0.00,,---,0.00,VWS V14.01,2013-08-03 18:28:00,
2013-08-03 14:33:00,94.3,67.7,29.82,North,-999,-999.0,0.0,42,0.00,,---,0.00,VWS V14.01,2013-08-03 18:33:00,
2013-08-03 14:37:00,92.2,67.8,29.82,North,-999,-999.0,0.0,45,0.00,,---,0.00,VWS V14.01,2013-08-03 18:37:00,
2013-08-03 14:43:00,92.0,68.9,29.82,North,-999,-999.0,0.0,47,0.00,,---,0.00,VWS V14.01,2013-08-03 18:43:00,
2013-08-03 14:48:00,92.0,68.9,29.82,North,-999,-999.0,0.0,47,0.00,,---,0.00,VWS V14.01,2013-08-03 18:48:00,
2013-08-03 14:54:00,92.3,68.5,29.82,North,-999,-999.0,0.0,46,0.00,,---,0.00,VWS V14.01,2013-08-03 18:54:00,
2013-08-03 14:58:00,92.7,68.3,29.81,North,-999,-999.0,0.0,45,0.00,,---,0.00,VWS V14.01,2013-08-03 18:58:00,
2013-08-03 15:04:00,93.2,69.4,29.82,North,-999,-999.0,0.0,46,0.00,,---,0.00,VWS V14.01,2013-08-03 19:04:00,
2013-08-03 15:09:00,93.6,68.4,29.81,North,-999,-999.0,0.0,44,0.00,,---,0.00,VWS V14.01,2013-08-03 19:09:00,
2013-08-03 15:14:00,94.0,68.8,29.81,North,-999,-999.0,0.0,44,0.00,,---,0.00,VWS V14.01,2013-08-03 19:14:00,
2013-08-03 15:19:00,94.7,69.4,29.81,North,-999,-999.0,0.0,44,0.00,,---,0.00,VWS V14.01,2013-08-03 19:19:00,
2013-08-03 15:24:00,95.0,69.7,29.81,North,-999,-999.0,0.0,44,0.00,,---,0.00,VWS V14.01,2013-08-03 19:24:00,
2013-08-03 15:29:00,94.5,68.6,29.81,North,-999,-999.0,0.0,43,0.00,,---,0.00,VWS V14.01,2013-08-03 19:29:00,
2013-08-03 15:35:00,94.1,68.9,29.80,North,-999,-999.0,0.0,44,0.00,,---,0.00,VWS V14.01,2013-08-03 19:35:00,
2013-08-03 15:40:00,95.2,69.9,29.80,North,-999,-999.0,0.0,44,0.00,,---,0.00,VWS V14.01,2013-08-03 19:40:00,
2013-08-03 15:46:00,96.1,70.0,29.80,North,-999,-999.0,0.0,43,0.00,,---,0.00,VWS V14.01,2013-08-03 19:46:00,
2013-08-03 15:51:00,96.1,69.3,29.80,North,-999,-999.0,0.0,42,0.00,,---,0.00,VWS V14.01,2013-08-03 19:51:00,
2013-08-03 15:55:00,95.4,69.4,29.80,North,-999,-999.0,0.0,43,0.00,,---,0.00,VWS V14.01,2013-08-03 19:55:00,
2013-08-03 16:01:00,96.5,70.4,29.80,North,-999,-999.0,0.0,43,0.00,,---,0.00,VWS V14.01,2013-08-03 20:01:00,
2013-08-03 16:07:00,95.6,69.6,29.79,North,-999,-999.0,0.0,43,0.00,,---,0.00,VWS V14.01,2013-08-03 20:07:00,
2013-08-03 16:12:00,95.4,68.7,29.79,North,-999,-999.0,0.0,42,0.00,,---,0.00,VWS V14.01,2013-08-03 20:12:00,
2013-08-03 16:18:00,94.9,69.6,29.80,North,-999,-999.0,0.0,44,0.00,,---,0.00,VWS V14.01,2013-08-03 20:18:00,
2013-08-03 16:24:00,93.6,68.4,29.80,North,-999,-999.0,0.0,44,0.00,,---,0.00,VWS V14.01,2013-08-03 20:24:00,
2013-08-03 16:30:00,93.4,68.2,29.80,North,-999,-999.0,0.0,44,0.00,,---,0.00,VWS V14.01,2013-08-03 20:30:00,
2013-08-03 16:35:00,92.9,69.1,29.79,North,-999,-999.0,0.0,46,0.00,,---,0.00,VWS V14.01,2013-08-03 20:35:00,
2013-08-03 16:40:00,92.5,68.7,29.79,North,-999,-999.0,0.0,46,0.00,,---,0.00,VWS V14.01,2013-08-03 20:40:00,
2013-08-03 16:46:00,92.9,68.4,29.79,North,-999,-999.0,0.0,45,0.00,,---,0.00,VWS V14.01,2013-08-03 20:46:00,
2013-08-03 16:51:00,92.0,68.9,29.79,North,-999,-999.0,0.0,47,0.00,,---,0.00,VWS V14.01,2013-08-03 20:51:00,
2013-08-03 16:56:00,91.4,69.0,29.79,North,-999,-999.0,0.0,48,0.00,,---,0.00,VWS V14.01,2013-08-03 20:56:00,
2013-08-03 17:02:00,91.4,69.0,29.79,North,-999,-999.0,0.0,48,0.00,,---,0.00,VWS V14.01,2013-08-03 21:02:00,
2013-08-03 17:07:00,90.7,68.3,29.79,North,-999,-999.0,0.0,48,0.00,,---,0.00,VWS V14.01,2013-08-03 21:07:00,
2013-08-03 17:12:00,90.2,69.1,29.79,North,-999,-999.0,0.0,50,0.00,,---,0.00,VWS V14.01,2013-08-03 21:12:00,
2013-08-03 17:17:00,91.6,70.3,29.78,North,-999,-999.0,0.0,50,0.00,,---,0.00,VWS V14.01,2013-08-03 21:17:00,
2013-08-03 17:23:00,93.1,71.1,29.78,North,-999,-999.0,0.0,49,0.00,,---,0.00,VWS V14.01,2013-08-03 21:23:00,
2013-08-03 17:28:00,93.2,70.0,29.78,North,-999,-999.0,0.0,47,0.00,,---,0.00,VWS V14.01,2013-08-03 21:28:00,
2013-08-03 17:33:00,93.2,70.0,29.78,North,-999,-999.0,0.0,47,0.00,,---,0.00,VWS V14.01,2013-08-03 21:33:00,
2013-08-03 17:38:00,92.9,69.7,29.78,North,-999,-999.0,0.0,47,0.00,,---,0.00,VWS V14.01,2013-08-03 21:38:00,
2013-08-03 17:43:00,92.5,70.0,29.78,North,-999,-999.0,0.0,48,0.00,,---,0.00,VWS V14.01,2013-08-03 21:43:00,
2013-08-03 17:48:00,91.4,69.6,29.78,North,-999,-999.0,0.0,49,0.00,,---,0.00,VWS V14.01,2013-08-03 21:48:00,
2013-08-03 17:54:00,91.8,70.5,29.78,North,-999,-999.0,0.0,50,0.00,,---,0.00,VWS V14.01,2013-08-03 21:54:00,
2013-08-03 17:59:00,92.0,70.1,29.78,North,-999,-999.0,0.0,49,0.00,,---,0.00,VWS V14.01,2013-08-03 21:59:00,
2013-08-03 18:05:00,91.8,69.9,29.78,North,-999,-999.0,0.0,49,0.00,,---,0.00,VWS V14.01,2013-08-03 22:05:00,
2013-08-03 18:11:00,90.9,69.7,29.78,North,-999,-999.0,0.0,50,0.00,,---,0.00,VWS V14.01,2013-08-03 22:11:00,
2013-08-03 18:17:00,89.6,69.1,29.78,North,-999,-999.0,0.0,51,0.00,,---,0.00,VWS V14.01,2013-08-03 22:17:00,
2013-08-03 18:22:00,89.6,69.7,29.78,North,-999,-999.0,0.0,52,0.00,,---,0.00,VWS V14.01,2013-08-03 22:22:00,
2013-08-03 18:27:00,89.8,69.8,29.78,North,-999,-999.0,0.0,52,0.00,,---,0.00,VWS V14.01,2013-08-03 22:27:00,
2013-08-03 18:33:00,88.9,69.6,29.78,North,-999,-999.0,0.0,53,0.00,,---,0.00,VWS V14.01,2013-08-03 22:33:00,
2013-08-03 18:39:00,88.6,69.8,29.78,North,-999,-999.0,0.0,54,0.00,,---,0.00,VWS V14.01,2013-08-03 22:39:00,
2013-08-03 18:45:00,87.8,69.6,29.78,North,-999,-999.0,0.0,55,0.00,,---,0.00,VWS V14.01,2013-08-03 22:45:00,
2013-08-03 18:50:00,87.3,69.7,29.78,North,-999,-999.0,0.0,56,0.00,,---,0.00,VWS V14.01,2013-08-03 22:50:00,
2013-08-03 18:55:00,86.6,70.1,29.78,North,-999,-999.0,0.0,58,0.00,,---,0.00,VWS V14.01,2013-08-03 22:55:00,
2013-08-03 19:00:00,85.7,70.2,29.78,North,-999,-999.0,0.0,60,0.00,,---,0.00,VWS V14.01,2013-08-03 23:00:00,
2013-08-03 19:05:00,85.7,70.7,29.78,North,-999,-999.0,0.0,61,0.00,,---,0.00,VWS V14.01,2013-08-03 23:05:00,
2013-08-03 19:11:00,85.9,71.4,29.79,North,-999,-999.0,0.0,62,0.00,,---,0.00,VWS V14.01,2013-08-03 23:11:00,
2013-08-03 19:16:00,85.9,71.4,29.79,North,-999,-999.0,0.0,62,0.00,,---,0.00,VWS V14.01,2013-08-03 23:16:00,
2013-08-03 19:22:00,85.5,71.9,29.79,North,-999,-999.0,0.0,64,0.00,,---,0.00,VWS V14.01,2013-08-03 23:22:00,
2013-08-03 19:27:00,84.1,71.5,29.79,North,-999,-999.0,0.0,66,0.00,,---,0.00,VWS V14.01,2013-08-03 23:27:00,
2013-08-03 19:32:00,83.2,71.1,29.79,North,-999,-999.0,0.0,67,0.00,,---,0.00,VWS V14.01,2013-08-03 23:32:00,
2013-08-03 19:39:00,82.8,71.2,29.79,North,-999,-999.0,0.0,68,0.00,,---,0.00,VWS V14.01,2013-08-03 23:39:00,
2013-08-03 19:45:00,82.3,70.7,29.78,North,-999,-999.0,0.0,68,0.00,,---,0.00,VWS V14.01,2013-08-03 23:45:00,
2013-08-03 19:49:00,82.4,71.2,29.79,North,-999,-999.0,0.0,69,0.00,,---,0.00,VWS V14.01,2013-08-03 23:49:00,
2013-08-03 19:55:00,82.6,71.4,29.79,North,-999,-999.0,0.0,69,0.00,,---,0.00,VWS V14.01,2013-08-03 23:55:00,
2013-08-03 20:00:00,82.4,71.6,29.79,North,-999,-999.0,0.0,70,0.00,,---,0.00,VWS V14.01,2013-08-04 00:00:00,
2013-08-03 20:06:00,82.1,71.3,29.79,North,-999,-999.0,0.0,70,0.00,,---,0.00,VWS V14.01,2013-08-04 00:06:00,
2013-08-03 20:11:00,81.7,71.0,29.79,North,-999,-999.0,0.0,70,0.00,,---,0.00,VWS V14.01,2013-08-04 00:11:00,
2013-08-03 20:17:00,81.4,71.1,29.79,North,-999,-999.0,0.0,71,0.00,,---,0.00,VWS V14.01,2013-08-04 00:17:00,
2013-08-03 20:22:00,80.8,70.5,29.79,North,-999,-999.0,0.0,71,0.00,,---,0.00,VWS V14.01,2013-08-04 00:22:00,
2013-08-03 20:27:00,80.5,70.7,29.79,North,-999,-999.0,0.0,72,0.00,,---,0.00,VWS V14.01,2013-08-04 00:27:00,
2013-08-03 20:32:00,80.3,70.5,29.79,North,-999,-999.0,0.0,72,0.00,,---,0.00,VWS V14.01,2013-08-04 00:32:00,
2013-08-03 20:37:00,80.1,70.7,29.79,North,-999,-999.0,0.0,73,0.00,,---,0.00,VWS V14.01,2013-08-04 00:37:00,
2013-08-03 20:43:00,79.6,70.6,29.79,North,-999,-999.0,0.0,74,0.00,,---,0.00,VWS V14.01,2013-08-04 00:43:00,
2013-08-03 20:48:00,79.2,70.6,29.79,North,-999,-999.0,0.0,75,0.00,,---,0.00,VWS V14.01,2013-08-04 00:48:00,
2013-08-03 20:53:00,78.8,70.6,29.79,North,-999,-999.0,0.0,76,0.00,,---,0.00,VWS V14.01,2013-08-04 00:53:00,
2013-08-03 20:58:00,78.5,70.3,29.79,North,-999,-999.0,0.0,76,0.00,,---,0.00,VWS V14.01,2013-08-04 00:58:00,
2013-08-03 21:04:00,78.3,70.5,29.79,North,-999,-999.0,0.0,77,0.00,,---,0.00,VWS V14.01,2013-08-04 01:04:00,
2013-08-03 21:09:00,78.1,70.3,29.79,North,-999,-999.0,0.0,77,0.00,,---,0.00,VWS V14.01,2013-08-04 01:09:00,
2013-08-03 21:15:00,77.8,70.4,29.79,North,-999,-999.0,0.0,78,0.00,,---,0.00,VWS V14.01,2013-08-04 01:15:00,
2013-08-03 21:20:00,77.6,70.2,29.79,North,-999,-999.0,0.0,78,0.00,,---,0.00,VWS V14.01,2013-08-04 01:20:00,
2013-08-03 21:25:00,77.4,70.0,29.79,North,-999,-999.0,0.0,78,0.00,,---,0.00,VWS V14.01,2013-08-04 01:25:00,
2013-08-03 21:32:00,77.2,70.2,29.79,North,-999,-999.0,0.0,79,0.00,,---,0.00,VWS V14.01,2013-08-04 01:32:00,
2013-08-03 21:37:00,77.0,70.0,29.80,North,-999,-999.0,0.0,79,0.00,,---,0.00,VWS V14.01,2013-08-04 01:37:00,
2013-08-03 21:42:00,76.9,69.9,29.80,North,-999,-999.0,0.0,79,0.00,,---,0.00,VWS V14.01,2013-08-04 01:42:00,
2013-08-03 21:47:00,76.7,70.1,29.80,North,-999,-999.0,0.0,80,0.00,,---,0.00,VWS V14.01,2013-08-04 01:47:00,
2013-08-03 21:53:00,76.5,69.9,29.80,North,-999,-999.0,0.0,80,0.00,,---,0.00,VWS V14.01,2013-08-04 01:53:00,
2013-08-03 21:59:00,76.3,70.1,29.80,North,-999,-999.0,0.0,81,0.00,,---,0.00,VWS V14.01,2013-08-04 01:59:00,
2013-08-03 22:05:00,76.1,69.8,29.81,North,-999,-999.0,0.0,81,0.00,,---,0.00,VWS V14.01,2013-08-04 02:05:00,
2013-08-03 22:11:00,76.1,69.8,29.80,North,-999,-999.0,0.0,81,0.00,,---,0.00,VWS V14.01,2013-08-04 02:11:00,
2013-08-03 22:16:00,76.0,69.8,29.80,North,-999,-999.0,0.0,81,0.00,,---,0.00,VWS V14.01,2013-08-04 02:16:00,
2013-08-03 22:21:00,75.8,69.6,29.80,North,-999,-999.0,0.0,81,0.00,,---,0.00,VWS V14.01,2013-08-04 02:21:00,
2013-08-03 22:27:00,75.6,69.7,29.80,North,-999,-999.0,0.0,82,0.00,,---,0.00,VWS V14.01,2013-08-04 02:27:00,
2013-08-03 22:33:00,75.6,69.7,29.81,North,-999,-999.0,0.0,82,0.00,,---,0.00,VWS V14.01,2013-08-04 02:33:00,
2013-08-03 22:38:00,75.4,69.9,29.81,North,-999,-999.0,0.0,83,0.00,,---,0.00,VWS V14.01,2013-08-04 02:38:00,
2013-08-03 22:44:00,75.2,69.7,29.81,North,-999,-999.0,0.0,83,0.00,,---,0.00,VWS V14.01,2013-08-04 02:44:00,
2013-08-03 22:49:00,75.2,69.7,29.81,North,-999,-999.0,0.0,83,0.00,,---,0.00,VWS V14.01,2013-08-04 02:49:00,
2013-08-03 22:54:00,75.2,69.7,29.81,North,-999,-999.0,0.0,83,0.00,,---,0.00,VWS V14.01,2013-08-04 02:54:00,
2013-08-03 22:59:00,75.2,69.7,29.81,North,-999,-999.0,0.0,83,0.00,,---,0.00,VWS V14.01,2013-08-04 02:59:00,
2013-08-03 23:04:00,75.2,69.7,29.81,North,-999,-999.0,0.0,83,0.00,,---,0.00,VWS V14.01,2013-08-04 03:04:00,
2013-08-03 23:09:00,75.2,69.7,29.81,North,-999,-999.0,0.0,83,0.00,,---,0.00,VWS V14.01,2013-08-04 03:09:00,
2013-08-03 23:15:00,75.1,69.9,29.81,North,-999,-999.0,0.0,84,0.00,,---,0.00,VWS V14.01,2013-08-04 03:15:00,
2013-08-03 23:20:00,74.9,69.7,29.81,North,-999,-999.0,0.0,84,0.00,,---,0.00,VWS V14.01,2013-08-04 03:20:00,
2013-08-03 23:26:00,74.7,69.6,29.81,North,-999,-999.0,0.0,84,0.00,,---,0.00,VWS V14.01,2013-08-04 03:26:00,
2013-08-03 23:30:00,74.7,69.6,29.81,North,-999,-999.0,0.0,84,0.00,,---,0.00,VWS V14.01,2013-08-04 03:30:00,
2013-08-03 23:36:00,74.7,69.9,29.81,North,-999,-999.0,0.0,85,0.00,,---,0.00,VWS V14.01,2013-08-04 03:36:00,
2013-08-03 23:41:00,74.7,69.9,29.81,North,-999,-999.0,0.0,85,0.00,,---,0.00,VWS V14.01,2013-08-04 03:41:00,
2013-08-03 23:46:00,74.7,69.9,29.81,North,-999,-999.0,0.0,85,0.00,,---,0.00,VWS V14.01,2013-08-04 03:46:00,
2013-08-03 23:51:00,74.7,69.9,29.81,North,-999,-999.0,0.0,85,0.00,,---,0.00,VWS V14.01,2013-08-04 03:51:00,
2013-08-03 23:56:00,74.7,69.9,29.81,North,-999,-999.0,0.0,85,0.00,,---,0.00,VWS V14.01,2013-08-04 03:56:00,